TimePST,TemperatureF,Dew PointF,Humidity,Sea Level PressureIn,VisibilityMPH,Wind Direction,Wind SpeedMPH,Gust SpeedMPH,PrecipitationIn,Events,Conditions,WindDirDegrees,DateUTC
12:56 AM,52.0,28.9,41,29.98,10.0,SSW,9.2,-,N/A,,Partly Cloudy,210,2012-11-17 08:56:00
1:56 AM,51.1,28.9,43,29.97,10.0,SSW,9.2,-,N/A,,Mostly Cloudy,200,2012-11-17 09:56:00
2:56 AM,52.0,28.9,41,29.97,10.0,SSW,6.9,-,N/A,,Mostly Cloudy,200,2012-11-17 10:56:00
3:56 AM,50.0,30.0,46,29.96,10.0,SSW,5.8,-,N/A,,Mostly Cloudy,210,2012-11-17 11:56:00
4:56 AM,51.1,28.9,43,29.96,10.0,WSW,6.9,-,N/A,,Mostly Cloudy,240,2012-11-17 12:56:00
5:56 AM,51.1,30.0,44,29.97,10.0,SSW,8.1,-,N/A,,Mostly Cloudy,200,2012-11-17 13:56:00
6:56 AM,52.0,30.9,45,29.99,10.0,SW,6.9,-,N/A,,Mostly Cloudy,220,2012-11-17 14:56:00
7:56 AM,57.0,30.9,37,29.99,10.0,SW,3.5,-,N/A,,Scattered Clouds,220,2012-11-17 15:56:00
8:56 AM,60.8,30.2,31,30.02,10.0,South,3.5,-,N/A,,Scattered Clouds,190,2012-11-17 16:56:00
9:56 AM,63.0,30.9,30,30.01,10.0,Calm,Calm,-,N/A,,Scattered Clouds,0,2012-11-17 17:56:00
10:56 AM,66.0,36.0,33,29.97,10.0,SE,3.5,-,N/A,,Mostly Cloudy,130,2012-11-17 18:56:00
11:56 AM,69.1,39.0,33,29.94,10.0,WNW,4.6,-,N/A,,Mostly Cloudy,300,2012-11-17 19:56:00
12:20 PM,69.8,39.2,33,29.96,10.0,South,16.1,-,N/A,,Scattered Clouds,190,2012-11-17 20:20:00
12:56 PM,71.1,39.9,32,29.91,10.0,South,12.7,-,N/A,,Scattered Clouds,190,2012-11-17 20:56:00
1:56 PM,70.0,39.0,32,29.90,10.0,SSW,16.1,-,N/A,,Scattered Clouds,210,2012-11-17 21:56:00
2:56 PM,70.0,39.9,33,29.90,10.0,SSW,12.7,-,N/A,,Mostly Cloudy,200,2012-11-17 22:56:00
3:56 PM,69.1,39.9,35,29.90,10.0,SW,12.7,-,N/A,,Mostly Cloudy,230,2012-11-17 23:56:00
4:56 PM,66.9,41.0,39,29.91,10.0,SW,15.0,-,N/A,,Mostly Cloudy,220,2012-11-18 00:56:00
5:56 PM,66.0,41.0,40,29.92,10.0,SW,16.1,-,N/A,,Mostly Cloudy,230,2012-11-18 01:56:00
6:56 PM,64.9,39.9,40,29.92,10.0,SW,15.0,-,N/A,,Mostly Cloudy,220,2012-11-18 02:56:00
7:56 PM,64.9,41.0,42,29.92,10.0,SSW,13.8,-,N/A,,Scattered Clouds,200,2012-11-18 03:56:00
8:56 PM,64.0,41.0,43,29.93,10.0,South,12.7,-,N/A,,Scattered Clouds,190,2012-11-18 04:56:00
9:56 PM,63.0,42.1,46,29.94,10.0,South,11.5,-,N/A,,Partly Cloudy,190,2012-11-18 05:56:00
10:56 PM,63.0,42.1,46,29.94,10.0,South,15.0,23.0,N/A,,Partly Cloudy,190,2012-11-18 06:56:00
11:56 PM,61.0,42.1,50,29.93,10.0,South,13.8,-,N/A,,Partly Cloudy,180,2012-11-18 07:56:00